Time;durP1;ratioP1;P1;durP2;ratioP2;P2;SDS_P1;SDS_P2;PMS_P1;PMS_P2;Temp;Humidity;BMP_temperature;BMP_pressure;BME280_temperature;BME280_humidity;BME280_pressure;Samples;Min_cycle;Max_cycle;Signal;HPM_P1;HPM_P2
2023/05/11 00:02:00;;;;;;;57.97;35.45;;;15.50;99.90;;;;;;4978559;28;20065;-82
2023/05/11 00:04:26;;;;;;;57.63;34.65;;;15.50;99.90;;;;;;4991963;28;20470;-82
2023/05/11 00:06:53;;;;;;;58.75;35.75;;;15.40;99.90;;;;;;4981652;28;20018;-83
2023/05/11 00:09:19;;;;;;;56.13;34.53;;;15.40;99.90;;;;;;4974774;28;20522;-82
2023/05/11 00:11:45;;;;;;;57.85;34.80;;;15.30;99.90;;;;;;4983902;28;20109;-82
2023/05/11 00:14:10;;;;;;;59.35;35.13;;;15.30;99.90;;;;;;4995630;28;20018;-82
2023/05/11 00:16:36;;;;;;;62.30;35.15;;;15.30;99.90;;;;;;4997031;28;20620;-82
2023/05/11 00:19:02;;;;;;;55.65;34.97;;;15.20;99.90;;;;;;4973362;28;20022;-83
2023/05/11 00:21:27;;;;;;;57.30;34.47;;;15.20;99.90;;;;;;4991923;28;20457;-82
2023/05/11 00:23:53;;;;;;;56.08;35.47;;;15.20;99.90;;;;;;4983377;28;20038;-82
2023/05/11 00:26:18;;;;;;;62.75;34.35;;;15.10;99.90;;;;;;4995450;28;20484;-82
2023/05/11 00:28:44;;;;;;;58.95;34.92;;;15.20;99.90;;;;;;4977648;28;20042;-83
2023/05/11 00:31:09;;;;;;;62.25;34.75;;;15.20;99.90;;;;;;4974772;28;20102;-82
2023/05/11 00:33:35;;;;;;;53.88;34.03;;;15.20;99.90;;;;;;4977673;28;20050;-82
2023/05/11 00:36:02;;;;;;;50.42;31.08;;;15.20;99.90;;;;;;4985285;28;20035;-83
2023/05/11 00:38:28;;;;;;;43.88;26.20;;;15.00;99.90;;;;;;4977861;28;20022;-83
2023/05/11 00:40:54;;;;;;;42.30;25.42;;;15.00;99.90;;;;;;4971179;28;20551;-82
2023/05/11 00:43:19;;;;;;;44.17;24.65;;;15.00;99.90;;;;;;4979327;28;20085;-83
2023/05/11 00:45:47;;;;;;;37.60;22.73;;;15.00;99.90;;;;;;4990549;28;20098;-83
2023/05/11 00:48:18;;;;;;;40.80;21.77;;;14.90;99.90;;;;;;4974148;28;20023;-83
2023/05/11 00:50:44;;;;;;;29.80;18.92;;;14.90;99.90;;;;;;4989370;28;20556;-83
2023/05/11 00:53:10;;;;;;;28.05;18.58;;;14.90;99.90;;;;;;4996473;28;20054;-84
2023/05/11 00:55:38;;;;;;;30.92;19.63;;;14.80;99.90;;;;;;5000652;28;20054;-84
2023/05/11 00:58:06;;;;;;;32.17;18.10;;;14.80;99.90;;;;;;4978737;28;20072;-84
2023/05/11 01:00:32;;;;;;;33.60;17.58;;;14.70;99.90;;;;;;4982953;28;20506;-84
2023/05/11 01:03:01;;;;;;;32.78;18.48;;;14.80;99.90;;;;;;4985321;28;20050;-84
2023/05/11 01:05:55;;;;;;;30.70;18.20;;;14.70;99.90;;;;;;4999142;28;20101;-84
2023/05/11 01:08:35;;;;;;;;;;;14.70;99.90;;;;;;4951251;28;20030;-84
2023/05/11 01:11:18;;;;;;;27.73;16.92;;;14.70;99.90;;;;;;4980623;28;20273;-83
2023/05/11 01:14:05;;;;;;;30.50;17.75;;;14.70;99.90;;;;;;4974787;28;20041;-84
2023/05/11 01:16:34;;;;;;;31.63;19.25;;;14.70;99.90;;;;;;4980887;28;20429;-84
2023/05/11 01:19:02;;;;;;;32.38;17.33;;;14.60;99.90;;;;;;5000532;28;20033;-83
2023/05/11 01:21:32;;;;;;;32.25;18.55;;;14.60;99.90;;;;;;4976777;28;20426;-83
2023/05/11 01:24:25;;;;;;;34.72;19.63;;;14.70;99.90;;;;;;4990402;28;20038;-83
2023/05/11 01:27:06;;;;;;;31.20;18.88;;;14.70;99.90;;;;;;5001394;28;20109;-84
2023/05/11 01:29:48;;;;;;;30.85;18.83;;;14.70;99.90;;;;;;5010317;28;20014;-84
2023/05/11 01:32:26;;;;;;;27.35;16.75;;;14.70;99.90;;;;;;5001544;28;20026;-83
2023/05/11 01:35:13;;;;;;;24.40;15.68;;;14.60;99.90;;;;;;4975333;28;20030;-84
2023/05/11 01:37:43;;;;;;;32.90;17.75;;;14.60;99.90;;;;;;4996768;28;20099;-82
2023/05/11 01:40:20;;;;;;;29.63;15.80;;;14.70;99.90;;;;;;4999152;28;20025;-83
2023/05/11 01:43:01;;;;;;;29.75;16.80;;;14.70;99.90;;;;;;4969826;28;20030;-83
2023/05/11 01:45:30;;;;;;;22.17;14.55;;;14.70;99.90;;;;;;5001458;28;20028;-83
2023/05/11 01:47:58;;;;;;;24.27;13.95;;;14.70;99.90;;;;;;5007537;28;20022;-83
2023/05/11 01:50:25;;;;;;;17.23;11.70;;;14.60;99.90;;;;;;5024823;28;20082;-82
2023/05/11 01:52:51;;;;;;;17.90;10.93;;;14.60;99.90;;;;;;5021512;28;20037;-84
2023/05/11 01:55:20;;;;;;;14.82;9.77;;;14.60;99.90;;;;;;4996663;28;20434;-84
2023/05/11 01:57:51;;;;;;;13.13;8.57;;;14.50;99.90;;;;;;4998824;28;20466;-84
2023/05/11 02:00:19;;;;;;;10.93;7.32;;;14.40;99.90;;;;;;4980302;28;20038;-84
2023/05/11 02:02:47;;;;;;;15.43;7.93;;;14.40;99.90;;;;;;4991919;28;20026;-83
2023/05/11 02:05:18;;;;;;;15.40;7.80;;;14.30;99.90;;;;;;4981264;28;20045;-83
2023/05/11 02:07:45;;;;;;;13.07;8.70;;;14.30;99.90;;;;;;4997924;28;20026;-83
2023/05/11 02:10:13;;;;;;;13.13;8.52;;;14.30;99.90;;;;;;4979655;28;20148;-83
2023/05/11 02:12:43;;;;;;;9.50;7.78;;;14.30;99.90;;;;;;4998524;28;20031;-84
2023/05/11 02:15:10;;;;;;;13.80;7.78;;;14.20;99.90;;;;;;4999692;28;20014;-84
2023/05/11 02:17:38;;;;;;;13.75;8.43;;;14.20;99.90;;;;;;4991075;28;20034;-83
2023/05/11 02:20:06;;;;;;;13.25;9.10;;;14.20;99.90;;;;;;4994186;28;20049;-83
2023/05/11 02:22:34;;;;;;;12.02;8.07;;;14.20;99.90;;;;;;4980385;28;20029;-83
2023/05/11 02:25:00;;;;;;;17.23;8.50;;;14.20;99.90;;;;;;4979676;28;20509;-83
2023/05/11 02:27:25;;;;;;;12.20;7.90;;;14.20;99.90;;;;;;4994630;28;20026;-83
2023/05/11 02:29:54;;;;;;;14.77;8.15;;;14.30;99.90;;;;;;5007034;28;20026;-84
2023/05/11 02:32:21;;;;;;;19.45;8.52;;;14.40;99.90;;;;;;4989485;28;20026;-83
2023/05/11 02:35:00;;;;;;;14.15;9.18;;;14.40;99.90;;;;;;4986211;28;20046;-83
2023/05/11 02:37:27;;;;;;;13.43;8.52;;;14.40;99.90;;;;;;4980271;28;20052;-83
2023/05/11 02:40:07;;;;;;;18.63;9.38;;;14.50;99.90;;;;;;4986692;28;20397;-83
2023/05/11 02:42:38;;;;;;;15.38;8.93;;;14.40;99.90;;;;;;4991648;28;20022;-83
2023/05/11 02:45:07;;;;;;;15.63;10.43;;;14.50;99.90;;;;;;5000129;28;20022;-83
2023/05/11 02:47:38;;;;;;;20.38;11.15;;;14.50;99.90;;;;;;4998734;28;20018;-83
2023/05/11 02:50:06;;;;;;;24.92;13.60;;;14.50;99.90;;;;;;4998110;28;20021;-83
2023/05/11 02:52:33;;;;;;;21.63;11.90;;;14.50;99.90;;;;;;5000801;28;20030;-83
2023/05/11 02:55:03;;;;;;;19.92;12.25;;;14.50;99.90;;;;;;4998636;28;20111;-82
2023/05/11 02:57:29;;;;;;;19.17;11.73;;;14.60;99.90;;;;;;4989983;28;20498;-84
2023/05/11 02:59:55;;;;;;;25.25;13.52;;;14.50;99.90;;;;;;4995473;28;20160;-84
2023/05/11 03:02:21;;;;;;;25.13;13.27;;;14.60;99.90;;;;;;4991893;28;20027;-84
2023/05/11 03:04:46;;;;;;;22.05;12.93;;;14.50;99.90;;;;;;4961182;28;20026;-84
2023/05/11 03:07:12;;;;;;;20.65;11.73;;;14.60;99.90;;;;;;4977026;28;20033;-83
2023/05/11 03:09:38;;;;;;;21.42;13.18;;;14.50;99.90;;;;;;4981514;28;20026;-84
2023/05/11 03:12:04;;;;;;;25.63;14.82;;;14.50;99.90;;;;;;4981947;28;20331;-84
2023/05/11 03:14:32;;;;;;;34.05;17.65;;;14.60;99.90;;;;;;4986887;28;20727;-84
2023/05/11 03:16:59;;;;;;;35.28;18.90;;;14.60;99.90;;;;;;4982613;28;20069;-84
2023/05/11 03:19:27;;;;;;;27.13;15.90;;;14.60;99.90;;;;;;4981230;28;20466;-84
2023/05/11 03:21:54;;;;;;;25.38;14.60;;;14.80;99.90;;;;;;4977112;28;20026;-84
2023/05/11 03:24:20;;;;;;;22.77;13.70;;;14.80;99.90;;;;;;4979925;28;20038;-83
2023/05/11 03:26:48;;;;;;;20.25;12.48;;;14.80;99.90;;;;;;4983811;28;20026;-83
2023/05/11 03:29:17;;;;;;;23.63;13.95;;;14.80;99.90;;;;;;4994402;28;20019;-84
2023/05/11 03:31:42;;;;;;;25.52;15.50;;;14.80;99.90;;;;;;4975394;28;20077;-83
2023/05/11 03:34:08;;;;;;;28.23;17.65;;;14.70;99.90;;;;;;4978078;28;20030;-83
2023/05/11 03:36:35;;;;;;;31.75;19.10;;;14.70;99.90;;;;;;4976023;28;20366;-83
2023/05/11 03:39:01;;;;;;;29.75;18.63;;;14.70;99.90;;;;;;4996846;28;20363;-84
2023/05/11 03:41:30;;;;;;;28.88;16.60;;;14.70;99.90;;;;;;4999656;28;20504;-84
2023/05/11 03:43:58;;;;;;;26.05;15.07;;;14.80;99.90;;;;;;4980138;28;20037;-84
2023/05/11 03:46:28;;;;;;;22.88;15.75;;;14.80;99.90;;;;;;4997302;28;20470;-84
2023/05/11 03:48:53;;;;;;;27.50;16.15;;;14.90;99.90;;;;;;4964058;28;20109;-84
2023/05/11 03:51:19;;;;;;;24.35;14.70;;;14.90;99.90;;;;;;4998045;28;20680;-83
2023/05/11 03:53:45;;;;;;;30.70;17.35;;;14.90;99.90;;;;;;5014937;28;20027;-83
2023/05/11 03:56:11;;;;;;;25.85;16.77;;;14.90;99.90;;;;;;4998732;28;20363;-83
2023/05/11 03:58:40;;;;;;;32.28;20.10;;;14.80;99.90;;;;;;4998055;28;20117;-84
2023/05/11 04:01:09;;;;;;;31.95;19.20;;;14.90;99.90;;;;;;4998451;28;20052;-83
2023/05/11 04:03:46;;;;;;;42.00;22.42;;;14.90;99.90;;;;;;4978083;28;20378;-83
2023/05/11 04:06:12;;;;;;;33.90;19.17;;;14.80;99.90;;;;;;4993107;28;20050;-83
2023/05/11 04:08:37;;;;;;;28.48;17.80;;;14.80;99.90;;;;;;4990376;28;20045;-84
2023/05/11 04:11:03;;;;;;;31.88;17.80;;;14.90;99.90;;;;;;4978137;28;20038;-83
2023/05/11 04:13:28;;;;;;;30.83;18.83;;;14.90;99.90;;;;;;4974469;28;20033;-84
2023/05/11 04:15:54;;;;;;;35.40;18.58;;;14.90;99.90;;;;;;4980057;28;20037;-84
2023/05/11 04:18:20;;;;;;;30.60;18.13;;;14.90;99.90;;;;;;4979750;28;20029;-83
2023/05/11 04:20:45;;;;;;;27.60;16.85;;;14.90;99.90;;;;;;4997052;28;20022;-84
2023/05/11 04:23:11;;;;;;;29.92;18.48;;;14.80;99.90;;;;;;4985400;28;20044;-82
2023/05/11 04:25:37;;;;;;;28.98;18.23;;;14.80;99.90;;;;;;4977373;28;20770;-83
2023/05/11 04:28:07;;;;;;;30.73;18.83;;;14.90;99.90;;;;;;4991208;28;20019;-83
2023/05/11 04:30:32;;;;;;;31.17;18.80;;;14.90;99.90;;;;;;4994627;28;20030;-83
2023/05/11 04:32:58;;;;;;;29.27;18.85;;;15.00;99.90;;;;;;4977799;28;20029;-83
2023/05/11 04:35:23;;;;;;;31.83;19.38;;;15.00;99.90;;;;;;4980623;28;20026;-83
2023/05/11 04:37:49;;;;;;;37.55;19.65;;;15.00;99.90;;;;;;4998432;28;20041;-83
2023/05/11 04:40:18;;;;;;;33.22;18.88;;;15.00;99.90;;;;;;4978351;28;20474;-84
2023/05/11 04:42:46;;;;;;;34.50;19.98;;;15.00;99.90;;;;;;4999922;28;20441;-82
2023/05/11 04:45:14;;;;;;;34.10;19.65;;;15.00;99.90;;;;;;4980886;28;20026;-82
2023/05/11 04:47:40;;;;;;;32.25;19.58;;;15.00;99.90;;;;;;4982223;28;20068;-83
2023/05/11 04:50:06;;;;;;;33.97;20.70;;;15.00;99.90;;;;;;4995711;28;20054;-83
2023/05/11 04:52:34;;;;;;;33.50;20.30;;;15.10;99.90;;;;;;4996321;28;20030;-83
2023/05/11 04:55:00;;;;;;;37.78;22.80;;;15.10;99.90;;;;;;4997009;28;20442;-82
2023/05/11 04:57:26;;;;;;;36.72;23.15;;;15.10;99.90;;;;;;4982663;28;20025;-82
2023/05/11 04:59:51;;;;;;;37.78;22.63;;;15.20;99.90;;;;;;4982613;28;20478;-82
2023/05/11 05:02:19;;;;;;;36.40;23.88;;;15.20;99.90;;;;;;4984548;28;20028;-83
2023/05/11 05:04:45;;;;;;;43.63;24.48;;;15.20;99.90;;;;;;4981730;28;20018;-83
2023/05/11 05:07:11;;;;;;;42.80;23.33;;;15.20;99.90;;;;;;5000705;28;20025;-86
2023/05/11 05:09:37;;;;;;;42.20;23.70;;;15.30;99.90;;;;;;4999882;28;20026;-83
2023/05/11 05:12:02;;;;;;;40.05;23.50;;;15.30;99.90;;;;;;4988378;28;20026;-83
2023/05/11 05:14:28;;;;;;;40.40;24.27;;;15.30;99.90;;;;;;5002013;28;20097;-83
2023/05/11 05:16:53;;;;;;;36.83;22.60;;;15.30;99.90;;;;;;4984008;28;20019;-83
2023/05/11 05:19:19;;;;;;;41.30;25.00;;;15.30;99.90;;;;;;4998159;28;20118;-83
2023/05/11 05:21:45;;;;;;;39.45;23.15;;;15.30;99.90;;;;;;4982174;28;20125;-82
2023/05/11 05:24:11;;;;;;;42.25;24.38;;;15.30;99.90;;;;;;4986838;28;20072;-83
2023/05/11 05:26:39;;;;;;;40.65;24.25;;;15.30;99.90;;;;;;4987442;28;20372;-82
2023/05/11 05:29:05;;;;;;;39.75;23.65;;;15.40;99.90;;;;;;4985167;28;20022;-84
2023/05/11 05:31:31;;;;;;;40.15;23.35;;;15.40;99.90;;;;;;4980200;28;20190;-82
2023/05/11 05:33:57;;;;;;;42.85;23.65;;;15.40;99.90;;;;;;4994532;28;20379;-83
2023/05/11 05:36:22;;;;;;;42.38;23.75;;;15.50;99.90;;;;;;4983532;28;20037;-82
2023/05/11 05:38:48;;;;;;;41.35;23.33;;;15.40;99.90;;;;;;4985853;28;20065;-82
2023/05/11 05:41:13;;;;;;;41.63;22.55;;;15.40;99.90;;;;;;4998193;28;20037;-82
2023/05/11 05:43:41;;;;;;;38.22;23.05;;;15.50;99.90;;;;;;4992207;28;20030;-85
2023/05/11 05:46:07;;;;;;;39.33;22.27;;;15.50;99.90;;;;;;4984965;28;20105;-82
2023/05/11 05:48:33;;;;;;;41.17;23.52;;;15.50;99.90;;;;;;4987512;28;20474;-84
2023/05/11 05:50:59;;;;;;;44.75;25.02;;;15.70;99.90;;;;;;4994647;28;20022;-82
2023/05/11 05:53:24;;;;;;;41.78;22.92;;;15.60;99.90;;;;;;4981697;28;20508;-83
2023/05/11 05:55:50;;;;;;;40.63;23.60;;;15.70;99.90;;;;;;4995315;28;20035;-82
2023/05/11 05:58:15;;;;;;;44.70;24.00;;;15.70;99.90;;;;;;4982530;28;20441;-83
2023/05/11 06:00:41;;;;;;;44.15;23.00;;;15.80;99.90;;;;;;4980789;28;20030;-83
2023/05/11 06:03:07;;;;;;;41.65;22.85;;;15.90;99.90;;;;;;4996585;28;20022;-84
2023/05/11 06:05:32;;;;;;;46.83;25.13;;;16.00;99.90;;;;;;4978082;28;20141;-83
2023/05/11 06:07:58;;;;;;;53.60;27.70;;;16.10;99.90;;;;;;4988332;28;20101;-83
2023/05/11 06:10:24;;;;;;;49.42;26.20;;;16.10;99.90;;;;;;5000199;28;20363;-83
2023/05/11 06:12:50;;;;;;;61.03;28.88;;;16.20;99.90;;;;;;4993611;28;20025;-82
2023/05/11 06:15:15;;;;;;;59.17;27.23;;;16.20;99.90;;;;;;4994910;28;20034;-83
2023/05/11 06:17:41;;;;;;;58.50;27.92;;;16.20;99.90;;;;;;4990579;28;20110;-83
2023/05/11 06:20:07;;;;;;;57.05;28.50;;;16.20;99.90;;;;;;5011322;28;20188;-83
2023/05/11 06:22:34;;;;;;;61.65;27.33;;;16.30;99.90;;;;;;5007807;28;20033;-83
2023/05/11 06:25:02;;;;;;;56.78;29.88;;;16.30;99.90;;;;;;4989530;28;20112;-82
2023/05/11 06:27:27;;;;;;;57.92;28.75;;;16.40;99.90;;;;;;4987204;28;20195;-83
2023/05/11 06:29:53;;;;;;;63.55;27.55;;;16.50;99.90;;;;;;4982800;28;20500;-82
2023/05/11 06:32:19;;;;;;;53.97;27.25;;;16.50;99.90;;;;;;4997724;28;20304;-83
2023/05/11 06:34:47;;;;;;;67.25;29.00;;;16.50;99.90;;;;;;4975160;28;20018;-82
2023/05/11 06:37:19;;;;;;;52.58;25.92;;;16.40;99.90;;;;;;4997217;28;20081;-83
2023/05/11 06:39:47;;;;;;;48.30;24.48;;;16.50;99.90;;;;;;4981029;28;20029;-82
2023/05/11 06:42:13;;;;;;;52.40;24.75;;;16.70;99.90;;;;;;4975679;28;20018;-81
2023/05/11 06:44:40;;;;;;;50.03;23.77;;;16.90;99.90;;;;;;4977258;28;20034;-81
2023/05/11 06:47:07;;;;;;;50.45;25.42;;;17.00;99.90;;;;;;4995655;28;20064;-81
2023/05/11 06:49:32;;;;;;;47.75;25.35;;;17.00;99.90;;;;;;4980300;28;20026;-82
2023/05/11 06:52:00;;;;;;;38.72;21.20;;;17.10;99.90;;;;;;4995411;28;20040;-84
2023/05/11 06:54:28;;;;;;;41.63;21.08;;;16.90;99.90;;;;;;5000200;28;20217;-82
2023/05/11 06:56:54;;;;;;;49.05;25.15;;;16.90;99.90;;;;;;4985210;28;20030;-82
2023/05/11 06:59:22;;;;;;;52.85;25.80;;;16.80;99.90;;;;;;4981052;28;20046;-83
2023/05/11 07:01:47;;;;;;;54.13;25.73;;;16.70;99.90;;;;;;5007136;28;20030;-82
2023/05/11 07:04:13;;;;;;;52.10;26.33;;;16.70;99.90;;;;;;4978608;28;20093;-82
2023/05/11 07:06:39;;;;;;;47.78;23.85;;;16.60;99.90;;;;;;4996364;28;20019;-82
2023/05/11 07:09:04;;;;;;;43.83;23.38;;;16.40;99.90;;;;;;4985932;28;20201;-83
2023/05/11 07:11:31;;;;;;;48.25;23.05;;;16.30;99.90;;;;;;5007668;28;20030;-81
2023/05/11 07:13:56;;;;;;;46.13;23.02;;;16.30;99.90;;;;;;4983033;28;20395;-82
2023/05/11 07:16:24;;;;;;;49.28;24.27;;;16.30;99.90;;;;;;4980291;28;20029;-82
2023/05/11 07:18:49;;;;;;;50.28;24.40;;;16.30;99.90;;;;;;4996416;28;20744;-81
2023/05/11 07:21:15;;;;;;;56.90;25.10;;;16.30;99.90;;;;;;4985274;28;20034;-82
2023/05/11 07:23:41;;;;;;;47.00;24.60;;;16.30;99.90;;;;;;4992421;28;20048;-82
2023/05/11 07:26:08;;;;;;;48.67;24.10;;;16.30;99.90;;;;;;4979322;28;20502;-83
2023/05/11 07:28:37;;;;;;;44.60;23.88;;;16.40;99.90;;;;;;4976477;28;20533;-82
2023/05/11 07:31:03;;;;;;;51.38;23.52;;;16.50;99.90;;;;;;4991171;28;20113;-83
2023/05/11 07:33:28;;;;;;;48.65;23.20;;;16.60;99.90;;;;;;4993194;28;20105;-82
2023/05/11 07:35:54;;;;;;;49.30;23.55;;;16.70;99.90;;;;;;4997584;28;20441;-81
2023/05/11 07:38:20;;;;;;;48.50;23.73;;;16.90;99.90;;;;;;4992106;28;20545;-82
2023/05/11 07:40:48;;;;;;;42.85;24.00;;;17.00;99.90;;;;;;4993330;28;20100;-81
2023/05/11 07:43:16;;;;;;;43.80;23.20;;;16.90;99.90;;;;;;4974202;28;20022;-82
2023/05/11 07:45:44;;;;;;;49.92;23.92;;;16.80;99.90;;;;;;4975254;28;20050;-82
2023/05/11 07:48:10;;;;;;;49.05;24.67;;;16.90;99.90;;;;;;4991741;28;20089;-82
2023/05/11 07:50:35;;;;;;;52.60;25.15;;;16.90;99.90;;;;;;4975904;28;20029;-82
2023/05/11 07:53:01;;;;;;;52.78;24.45;;;16.90;99.90;;;;;;4995711;28;20022;-82
2023/05/11 07:55:29;;;;;;;50.08;25.77;;;17.00;99.90;;;;;;4994952;28;20029;-82
2023/05/11 07:57:55;;;;;;;47.80;24.52;;;17.10;99.90;;;;;;4995870;28;20585;-82
2023/05/11 08:00:21;;;;;;;44.72;22.38;;;17.20;99.90;;;;;;4994752;28;20034;-82
2023/05/11 08:02:47;;;;;;;48.80;24.27;;;17.40;99.90;;;;;;4999459;28;20026;-81
2023/05/11 08:05:12;;;;;;;50.75;24.90;;;17.40;99.90;;;;;;4978003;28;20742;-81
2023/05/11 08:07:42;;;;;;;49.67;24.80;;;17.50;99.90;;;;;;4996300;28;20033;-82
2023/05/11 08:10:08;;;;;;;46.15;24.02;;;17.40;99.90;;;;;;4980455;28;20117;-84
2023/05/11 08:12:35;;;;;;;45.47;23.55;;;17.60;99.90;;;;;;4995724;28;20450;-82
2023/05/11 08:15:04;;;;;;;44.70;23.63;;;17.70;99.90;;;;;;4983940;28;20030;-81
2023/05/11 08:17:30;;;;;;;44.30;22.30;;;17.90;99.90;;;;;;4980768;28;20106;-81
2023/05/11 08:19:56;;;;;;;47.17;22.33;;;18.10;99.90;;;;;;4996519;28;20037;-81
2023/05/11 08:22:22;;;;;;;41.10;22.00;;;18.20;99.90;;;;;;4984971;28;20025;-84
2023/05/11 08:24:49;;;;;;;41.42;22.85;;;18.40;99.90;;;;;;4977632;28;20063;-83
2023/05/11 08:27:16;;;;;;;46.45;22.85;;;18.40;99.90;;;;;;4996068;28;20025;-83
2023/05/11 08:29:41;;;;;;;43.58;22.58;;;18.30;99.90;;;;;;4990922;28;20489;-84
2023/05/11 08:32:07;;;;;;;41.42;20.85;;;18.40;99.90;;;;;;4985115;28;20030;-83
2023/05/11 08:34:33;;;;;;;41.78;22.55;;;18.50;99.90;;;;;;4990331;28;20050;-82
2023/05/11 08:37:03;;;;;;;43.17;22.38;;;18.60;99.90;;;;;;4995222;28;20448;-80
2023/05/11 08:39:28;;;;;;;38.78;21.38;;;18.70;99.90;;;;;;4989735;28;20028;-80
2023/05/11 08:41:59;;;;;;;43.28;22.63;;;18.90;99.90;;;;;;4994406;28;20022;-81
2023/05/11 08:44:26;;;;;;;44.85;21.27;;;18.80;99.90;;;;;;4991639;28;20084;-81
2023/05/11 08:46:56;;;;;;;40.70;22.23;;;18.80;99.90;;;;;;4991068;28;20015;-80
2023/05/11 08:49:23;;;;;;;41.25;22.50;;;19.00;99.90;;;;;;4974609;28;20023;-81
2023/05/11 08:51:50;;;;;;;39.25;21.33;;;19.10;99.90;;;;;;4997236;28;20033;-80
2023/05/11 08:54:17;;;;;;;41.17;21.60;;;19.20;99.90;;;;;;4995427;28;20030;-80
2023/05/11 08:56:46;;;;;;;36.15;20.02;;;19.30;99.90;;;;;;4993052;28;20037;-80
2023/05/11 08:59:12;;;;;;;35.60;20.17;;;19.40;99.90;;;;;;5001309;28;20033;-81
2023/05/11 09:01:40;;;;;;;36.30;20.63;;;19.50;99.90;;;;;;4979992;28;20138;-82
2023/05/11 09:04:07;;;;;;;31.77;19.02;;;19.50;99.90;;;;;;4996266;28;20038;-83
2023/05/11 09:06:34;;;;;;;30.50;17.35;;;19.30;99.90;;;;;;4993845;28;20027;-81
2023/05/11 09:09:00;;;;;;;31.98;17.88;;;19.30;99.90;;;;;;4995439;28;20022;-82
2023/05/11 09:11:28;;;;;;;38.63;19.15;;;19.30;99.90;;;;;;4977043;28;20022;-82
2023/05/11 09:13:53;;;;;;;34.47;19.08;;;19.40;99.90;;;;;;4970812;28;20082;-82
2023/05/11 09:16:19;;;;;;;32.00;19.10;;;19.30;99.90;;;;;;4978257;28;20061;-82
2023/05/11 09:18:52;;;;;;;34.88;18.95;;;19.30;99.90;;;;;;4998259;28;20084;-82
2023/05/11 09:21:18;;;;;;;36.20;18.75;;;19.40;99.90;;;;;;4977839;28;20026;-82
2023/05/11 09:23:48;;;;;;;37.33;20.13;;;19.40;99.90;;;;;;4990984;28;20826;-82
2023/05/11 09:26:20;;;;;;;37.40;20.73;;;19.40;99.90;;;;;;4994400;28;20107;-82
2023/05/11 09:28:52;;;;;;;41.50;20.65;;;19.10;99.90;;;;;;4983282;28;20381;-82
2023/05/11 09:31:36;;;;;;;41.23;21.90;;;19.10;99.90;;;;;;4997053;28;20259;-82
2023/05/11 09:34:15;;;;;;;41.63;22.02;;;19.00;99.90;;;;;;4999731;28;20426;-83
2023/05/11 09:36:42;;;;;;;40.08;18.77;;;18.90;99.90;;;;;;5004496;28;20085;-82
2023/05/11 09:39:18;;;;;;;37.25;20.73;;;18.80;99.90;;;;;;4990558;28;20033;-82
2023/05/11 09:41:44;;;;;;;34.80;20.40;;;18.80;99.90;;;;;;4982173;28;20030;-81
2023/05/11 09:44:14;;;;;;;47.85;24.52;;;18.90;99.90;;;;;;4993347;28;20470;-82
2023/05/11 09:46:41;;;;;;;45.35;24.92;;;18.60;99.90;;;;;;4998471;28;20049;-83
2023/05/11 09:49:07;;;;;;;45.58;26.33;;;18.50;99.90;;;;;;4983161;28;20030;-82
2023/05/11 09:51:35;;;;;;;48.03;26.80;;;18.40;99.90;;;;;;4997131;28;20053;-82
2023/05/11 09:54:18;;;;;;;45.80;25.63;;;18.20;99.90;;;;;;4994471;28;20494;-82
2023/05/11 09:56:55;;;;;;;45.75;25.48;;;18.00;99.90;;;;;;4983166;28;20037;-82
2023/05/11 09:59:40;;;;;;;50.15;25.80;;;17.80;99.90;;;;;;4990696;28;20031;-82
2023/05/11 10:02:21;;;;;;;54.20;28.48;;;17.60;99.90;;;;;;4993421;28;20030;-82
2023/05/11 10:04:48;;;;;;;57.83;30.25;;;17.40;99.90;;;;;;4995347;28;20049;-82
2023/05/11 10:07:46;;;;;;;52.10;29.00;;;17.30;99.90;;;;;;4986817;28;20648;-81
2023/05/11 10:10:12;;;;;;;54.33;28.48;;;17.20;99.90;;;;;;4986875;28;20520;-82
2023/05/11 10:12:39;;;;;;;54.17;29.35;;;17.30;99.90;;;;;;4981692;28;20394;-82
2023/05/11 10:15:06;;;;;;;51.58;28.23;;;17.30;99.90;;;;;;4996571;28;20026;-82
2023/05/11 10:17:37;;;;;;;45.88;24.02;;;17.10;99.90;;;;;;4980463;28;20045;-82
2023/05/11 10:20:07;;;;;;;40.10;22.27;;;17.10;99.90;;;;;;5000694;28;20113;-83
2023/05/11 10:22:32;;;;;;;44.90;24.50;;;17.20;99.90;;;;;;4975638;28;20491;-82
2023/05/11 10:24:59;;;;;;;41.40;23.42;;;17.10;99.90;;;;;;4978790;28;20031;-82
2023/05/11 10:27:25;;;;;;;41.20;23.58;;;16.90;99.90;;;;;;4986171;28;20460;-82
2023/05/11 10:29:51;;;;;;;44.08;24.95;;;17.10;99.90;;;;;;4995640;28;20023;-81
2023/05/11 10:32:18;;;;;;;39.75;21.33;;;17.20;99.90;;;;;;4994638;28;20106;-82
2023/05/11 10:34:46;;;;;;;34.97;19.90;;;17.20;99.90;;;;;;4981812;28;20030;-83
2023/05/11 10:37:13;;;;;;;35.53;19.65;;;17.10;99.90;;;;;;4967217;28;20027;-82
2023/05/11 10:39:39;;;;;;;30.42;16.98;;;16.90;99.90;;;;;;4976218;28;20381;-82
2023/05/11 10:42:29;;;;;;;27.40;16.50;;;17.00;99.90;;;;;;4990765;28;20041;-82
2023/05/11 10:45:25;;;;;;;26.02;14.90;;;17.10;99.90;;;;;;4995908;28;20026;-82
2023/05/11 10:48:22;;;;;;;21.83;13.10;;;17.30;99.90;;;;;;4992842;28;20019;-82
2023/05/11 10:50:59;;;;;;;21.48;12.35;;;17.40;99.90;;;;;;4996253;28;20026;-82
2023/05/11 10:53:25;;;;;;;18.92;11.50;;;17.70;99.90;;;;;;4970786;28;20036;-82
2023/05/11 10:56:12;;;;;;;18.05;11.65;;;18.00;99.90;;;;;;4977380;28;20021;-82
2023/05/11 10:58:56;;;;;;;17.63;11.30;;;18.20;99.90;;;;;;5004865;28;20022;-83
2023/05/11 11:01:28;;;;;;;18.25;11.27;;;18.40;99.90;;;;;;4994089;28;20062;-81
2023/05/11 11:04:08;;;;;;;18.73;11.40;;;18.40;99.90;;;;;;4976224;28;20029;-82
2023/05/11 11:06:36;;;;;;;12.55;8.25;;;18.50;99.90;;;;;;4994783;28;20014;-82
2023/05/11 11:09:14;;;;;;;10.57;7.78;;;18.90;99.90;;;;;;4990568;28;20014;-82
2023/05/11 11:11:45;;;;;;;11.90;7.60;;;19.20;99.90;;;;;;4991304;28;20037;-82
2023/05/11 11:14:12;;;;;;;13.90;7.88;;;19.40;99.90;;;;;;4996300;28;20021;-82
2023/05/11 11:16:38;;;;;;;9.23;7.20;;;19.80;99.90;;;;;;4993772;28;20644;-82
2023/05/11 11:19:29;;;;;;;8.50;7.63;;;20.10;99.90;;;;;;4992839;28;20117;-82
2023/05/11 11:21:59;;;;;;;14.48;8.80;;;20.20;99.90;;;;;;4990637;28;20026;-81
2023/05/11 11:24:39;;;;;;;16.25;10.60;;;20.30;99.90;;;;;;4989189;28;20110;-82
2023/05/11 11:27:12;;;;;;;9.65;7.40;;;20.50;99.90;;;;;;4963863;28;20030;-82
2023/05/11 11:29:58;;;;;;;12.32;8.95;;;20.60;99.90;;;;;;4975558;28;20092;-82
2023/05/11 11:32:25;;;;;;;9.20;7.38;;;20.90;99.90;;;;;;5012846;28;20030;-82
2023/05/11 11:34:58;;;;;;;10.05;6.32;;;21.30;99.90;;;;;;4995733;28;20034;-82
2023/05/11 11:37:26;;;;;;;12.40;9.52;;;21.30;99.90;;;;;;4964704;28;20034;-81
2023/05/11 11:39:59;;;;;;;13.88;9.85;;;20.90;99.90;;;;;;4991971;28;20041;-82
2023/05/11 11:42:34;;;;;;;13.65;9.25;;;20.80;99.90;;;;;;4978019;28;20054;-82
2023/05/11 11:45:29;;;;;;;13.93;9.80;;;21.10;99.90;;;;;;4998294;28;20030;-82
2023/05/11 11:48:19;;;;;;;10.57;7.97;;;21.50;99.90;;;;;;4995384;28;20015;-82
2023/05/11 11:50:50;;;;;;;10.55;7.03;;;21.80;99.90;;;;;;4993135;28;20038;-82
2023/05/11 11:53:35;;;;;;;10.35;6.25;;;21.70;99.90;;;;;;4975870;28;20029;-81
2023/05/11 11:56:01;;;;;;;10.35;6.60;;;21.90;99.90;;;;;;4994613;28;20038;-82
2023/05/11 11:58:42;;;;;;;8.73;5.68;;;22.20;99.90;;;;;;5116631;23;20434;-82
2023/05/11 12:01:21;;;;;;;10.65;5.65;;;22.30;99.90;;;;;;5022153;28;20029;-82
2023/05/11 12:04:15;;;;;;;9.48;6.50;;;22.50;99.90;;;;;;5017229;28;20098;-81
2023/05/11 12:06:43;;;;;;;8.45;6.65;;;22.60;99.90;;;;;;4989980;28;20041;-82
2023/05/11 12:09:09;;;;;;;8.48;6.60;;;22.40;99.90;;;;;;5005984;28;20599;-83
2023/05/11 12:11:37;;;;;;;6.30;5.68;;;22.60;99.90;;;;;;5018035;28;20112;-83
2023/05/11 12:14:02;;;;;;;7.57;5.78;;;22.80;99.90;;;;;;4994228;28;20030;-85
2023/05/11 12:16:28;;;;;;;6.38;5.40;;;22.80;99.90;;;;;;5003139;28;20026;-85
2023/05/11 12:18:56;;;;;;;6.75;6.05;;;22.70;99.90;;;;;;5012944;28;20037;-83
2023/05/11 12:21:27;;;;;;;6.40;5.38;;;22.50;99.90;;;;;;5002380;28;20033;-85
2023/05/11 12:23:56;;;;;;;4.95;4.45;;;22.40;99.90;;;;;;5011545;28;20029;-80
2023/05/11 12:26:24;;;;;;;5.35;4.72;;;22.40;99.90;;;;;;5004659;28;20022;-80
2023/05/11 12:28:51;;;;;;;5.93;5.32;;;22.70;99.90;;;;;;5013877;28;20038;-82
2023/05/11 12:31:18;;;;;;;7.97;6.15;;;22.90;99.90;;;;;;5014740;28;20049;-84
2023/05/11 12:33:50;;;;;;;8.35;6.15;;;23.30;99.90;;;;;;5018871;28;20034;-83
2023/05/11 12:36:17;;;;;;;7.07;5.82;;;23.30;99.90;;;;;;5015646;28;20447;-82
2023/05/11 12:38:47;;;;;;;9.52;6.85;;;23.40;99.90;;;;;;5005370;28;20030;-82
2023/05/11 12:41:22;;;;;;;7.57;6.07;;;23.80;99.90;;;;;;5000215;28;20196;-83